sensor_id;sensor_type;location;lat;lon;timestamp;pressure;altitude;pressure_sealevel;temperature
13304;BMP280;6720;51.958;4.540;2023-04-01T00:01:34;61151.31;;;-141.11
13304;BMP280;6720;51.958;4.540;2023-04-01T00:03:59;61151.31;;;-141.11
13304;BMP280;6720;51.958;4.540;2023-04-01T00:06:27;61151.31;;;-141.11
13304;BMP280;6720;51.958;4.540;2023-04-01T00:08:52;61151.31;;;-141.11
13304;BMP280;6720;51.958;4.540;2023-04-01T00:11:18;61151.31;;;-141.11
13304;BMP280;6720;51.958;4.540;2023-04-01T00:13:43;61151.31;;;-141.11
13304;BMP280;6720;51.958;4.540;2023-04-01T00:16:09;61151.31;;;-141.11
13304;BMP280;6720;51.958;4.540;2023-04-01T00:18:35;61151.31;;;-141.11
13304;BMP280;6720;51.958;4.540;2023-04-01T00:21:01;61151.31;;;-141.11
13304;BMP280;6720;51.958;4.540;2023-04-01T00:23:26;61151.31;;;-141.11
13304;BMP280;6720;51.958;4.540;2023-04-01T00:25:52;61151.31;;;-141.11
13304;BMP280;6720;51.958;4.540;2023-04-01T00:28:19;61151.31;;;-141.11
13304;BMP280;6720;51.958;4.540;2023-04-01T00:30:45;61151.31;;;-141.11
13304;BMP280;6720;51.958;4.540;2023-04-01T00:33:11;61151.31;;;-141.11
13304;BMP280;6720;51.958;4.540;2023-04-01T00:35:36;61151.31;;;-141.11
13304;BMP280;6720;51.958;4.540;2023-04-01T00:38:02;61151.31;;;-141.11
13304;BMP280;6720;51.958;4.540;2023-04-01T00:42:54;61151.31;;;-141.11
13304;BMP280;6720;51.958;4.540;2023-04-01T00:45:32;61151.31;;;-141.11
13304;BMP280;6720;51.958;4.540;2023-04-01T00:48:02;61151.31;;;-141.11
13304;BMP280;6720;51.958;4.540;2023-04-01T00:50:28;61151.31;;;-141.11
13304;BMP280;6720;51.958;4.540;2023-04-01T00:52:55;61151.31;;;-141.11
13304;BMP280;6720;51.958;4.540;2023-04-01T00:55:23;61151.31;;;-141.11
13304;BMP280;6720;51.958;4.540;2023-04-01T00:57:49;61151.31;;;-141.11
13304;BMP280;6720;51.958;4.540;2023-04-01T01:00:16;61151.31;;;-141.11
13304;BMP280;6720;51.958;4.540;2023-04-01T01:02:44;61151.31;;;-141.11
13304;BMP280;6720;51.958;4.540;2023-04-01T01:05:15;61151.31;;;-141.11
13304;BMP280;6720;51.958;4.540;2023-04-01T01:10:26;61151.31;;;-141.11
13304;BMP280;6720;51.958;4.540;2023-04-01T01:15:49;61151.31;;;-141.11
13304;BMP280;6720;51.958;4.540;2023-04-01T01:37:13;61151.31;;;-141.11
13304;BMP280;6720;51.958;4.540;2023-04-01T01:39:42;61151.31;;;-141.11
13304;BMP280;6720;51.958;4.540;2023-04-01T01:42:44;61151.31;;;-141.11
13304;BMP280;6720;51.958;4.540;2023-04-01T01:45:48;61151.31;;;-141.11
13304;BMP280;6720;51.958;4.540;2023-04-01T01:48:53;61151.31;;;-141.11
13304;BMP280;6720;51.958;4.540;2023-04-01T01:51:52;61151.31;;;-141.11
13304;BMP280;6720;51.958;4.540;2023-04-01T01:55:22;61151.31;;;-141.11
13304;BMP280;6720;51.958;4.540;2023-04-01T01:57:59;61151.31;;;-141.11
13304;BMP280;6720;51.958;4.540;2023-04-01T02:00:27;61151.31;;;-141.11
13304;BMP280;6720;51.958;4.540;2023-04-01T02:02:53;61151.31;;;-141.11
13304;BMP280;6720;51.958;4.540;2023-04-01T02:05:21;61151.31;;;-141.11
13304;BMP280;6720;51.958;4.540;2023-04-01T02:07:55;61151.31;;;-141.11
13304;BMP280;6720;51.958;4.540;2023-04-01T02:10:25;61151.31;;;-141.11
13304;BMP280;6720;51.958;4.540;2023-04-01T02:12:53;61151.31;;;-141.11
13304;BMP280;6720;51.958;4.540;2023-04-01T02:15:22;61151.31;;;-141.11
13304;BMP280;6720;51.958;4.540;2023-04-01T02:17:49;61151.31;;;-141.11
13304;BMP280;6720;51.958;4.540;2023-04-01T02:20:21;61151.31;;;-141.11
13304;BMP280;6720;51.958;4.540;2023-04-01T02:22:51;61151.31;;;-141.11
13304;BMP280;6720;51.958;4.540;2023-04-01T02:25:34;61151.31;;;-141.11
13304;BMP280;6720;51.958;4.540;2023-04-01T02:28:00;61151.31;;;-141.11
13304;BMP280;6720;51.958;4.540;2023-04-01T02:30:31;61151.31;;;-141.11
13304;BMP280;6720;51.958;4.540;2023-04-01T02:32:58;61151.31;;;-141.11
13304;BMP280;6720;51.958;4.540;2023-04-01T02:35:24;61151.31;;;-141.11
13304;BMP280;6720;51.958;4.540;2023-04-01T02:37:52;61151.31;;;-141.11
13304;BMP280;6720;51.958;4.540;2023-04-01T02:40:18;61151.31;;;-141.11
13304;BMP280;6720;51.958;4.540;2023-04-01T02:42:44;61151.31;;;-141.11
13304;BMP280;6720;51.958;4.540;2023-04-01T02:45:10;61151.31;;;-141.11
13304;BMP280;6720;51.958;4.540;2023-04-01T02:47:36;61151.31;;;-141.11
13304;BMP280;6720;51.958;4.540;2023-04-01T02:50:02;61151.31;;;-141.11
13304;BMP280;6720;51.958;4.540;2023-04-01T02:52:29;61151.31;;;-141.11
13304;BMP280;6720;51.958;4.540;2023-04-01T02:54:55;61151.31;;;-141.11
13304;BMP280;6720;51.958;4.540;2023-04-01T02:57:21;61151.31;;;-141.11
13304;BMP280;6720;51.958;4.540;2023-04-01T02:59:47;61151.31;;;-141.11
13304;BMP280;6720;51.958;4.540;2023-04-01T03:02:12;61151.31;;;-141.11
13304;BMP280;6720;51.958;4.540;2023-04-01T03:04:38;61151.31;;;-141.11
13304;BMP280;6720;51.958;4.540;2023-04-01T03:07:04;61151.31;;;-141.11
13304;BMP280;6720;51.958;4.540;2023-04-01T03:09:29;61151.31;;;-141.11
13304;BMP280;6720;51.958;4.540;2023-04-01T03:11:55;61151.31;;;-141.11
13304;BMP280;6720;51.958;4.540;2023-04-01T03:14:20;61151.31;;;-141.11
13304;BMP280;6720;51.958;4.540;2023-04-01T03:16:46;61151.31;;;-141.11
13304;BMP280;6720;51.958;4.540;2023-04-01T03:19:11;61151.31;;;-141.11
13304;BMP280;6720;51.958;4.540;2023-04-01T03:21:37;61151.31;;;-141.11
13304;BMP280;6720;51.958;4.540;2023-04-01T03:24:03;61151.31;;;-141.11
13304;BMP280;6720;51.958;4.540;2023-04-01T03:26:28;61151.31;;;-141.11
13304;BMP280;6720;51.958;4.540;2023-04-01T03:28:54;61151.31;;;-141.11
13304;BMP280;6720;51.958;4.540;2023-04-01T03:31:20;61151.31;;;-141.11
13304;BMP280;6720;51.958;4.540;2023-04-01T03:33:45;61151.31;;;-141.11
13304;BMP280;6720;51.958;4.540;2023-04-01T03:36:11;61151.31;;;-141.11
13304;BMP280;6720;51.958;4.540;2023-04-01T03:38:38;61151.31;;;-141.11
13304;BMP280;6720;51.958;4.540;2023-04-01T03:41:03;61151.31;;;-141.11
13304;BMP280;6720;51.958;4.540;2023-04-01T03:43:29;61151.31;;;-141.11
13304;BMP280;6720;51.958;4.540;2023-04-01T03:45:55;61151.31;;;-141.11
13304;BMP280;6720;51.958;4.540;2023-04-01T03:48:22;61151.31;;;-141.11
13304;BMP280;6720;51.958;4.540;2023-04-01T03:50:47;61151.31;;;-141.11
13304;BMP280;6720;51.958;4.540;2023-04-01T03:53:13;61151.31;;;-141.11
13304;BMP280;6720;51.958;4.540;2023-04-01T03:55:39;61151.31;;;-141.11
13304;BMP280;6720;51.958;4.540;2023-04-01T03:58:05;61151.31;;;-141.11
13304;BMP280;6720;51.958;4.540;2023-04-01T04:00:30;61151.31;;;-141.11
13304;BMP280;6720;51.958;4.540;2023-04-01T04:02:57;61151.31;;;-141.11
13304;BMP280;6720;51.958;4.540;2023-04-01T04:05:23;61151.31;;;-141.11
13304;BMP280;6720;51.958;4.540;2023-04-01T04:07:50;61151.31;;;-141.11
13304;BMP280;6720;51.958;4.540;2023-04-01T04:10:15;61151.31;;;-141.11
13304;BMP280;6720;51.958;4.540;2023-04-01T04:12:40;61151.31;;;-141.11
13304;BMP280;6720;51.958;4.540;2023-04-01T04:15:07;61151.31;;;-141.11
13304;BMP280;6720;51.958;4.540;2023-04-01T04:17:32;61151.31;;;-141.11
13304;BMP280;6720;51.958;4.540;2023-04-01T04:19:58;61151.31;;;-141.11
13304;BMP280;6720;51.958;4.540;2023-04-01T04:22:23;61151.31;;;-141.11
13304;BMP280;6720;51.958;4.540;2023-04-01T04:24:49;61151.31;;;-141.11
13304;BMP280;6720;51.958;4.540;2023-04-01T04:27:14;61151.31;;;-141.11
13304;BMP280;6720;51.958;4.540;2023-04-01T04:29:40;61151.31;;;-141.11
13304;BMP280;6720;51.958;4.540;2023-04-01T04:32:06;61151.31;;;-141.11
13304;BMP280;6720;51.958;4.540;2023-04-01T04:34:31;61151.31;;;-141.11
13304;BMP280;6720;51.958;4.540;2023-04-01T04:36:57;61151.31;;;-141.11
13304;BMP280;6720;51.958;4.540;2023-04-01T04:39:22;61151.31;;;-141.11
13304;BMP280;6720;51.958;4.540;2023-04-01T04:41:47;61151.31;;;-141.11
13304;BMP280;6720;51.958;4.540;2023-04-01T04:44:13;61151.31;;;-141.11
13304;BMP280;6720;51.958;4.540;2023-04-01T04:46:38;61151.31;;;-141.11
13304;BMP280;6720;51.958;4.540;2023-04-01T04:49:05;61151.31;;;-141.11
13304;BMP280;6720;51.958;4.540;2023-04-01T04:51:31;61151.31;;;-141.11
13304;BMP280;6720;51.958;4.540;2023-04-01T04:53:59;61151.31;;;-141.11
13304;BMP280;6720;51.958;4.540;2023-04-01T04:56:25;61151.31;;;-141.11
13304;BMP280;6720;51.958;4.540;2023-04-01T04:58:51;61151.31;;;-141.11
13304;BMP280;6720;51.958;4.540;2023-04-01T05:01:17;61151.31;;;-141.11
13304;BMP280;6720;51.958;4.540;2023-04-01T05:03:44;61151.31;;;-141.11
13304;BMP280;6720;51.958;4.540;2023-04-01T05:06:11;61151.31;;;-141.11
13304;BMP280;6720;51.958;4.540;2023-04-01T05:08:37;61151.31;;;-141.11
13304;BMP280;6720;51.958;4.540;2023-04-01T05:11:07;61151.31;;;-141.11
13304;BMP280;6720;51.958;4.540;2023-04-01T05:13:36;61151.31;;;-141.11
13304;BMP280;6720;51.958;4.540;2023-04-01T05:16:01;61151.31;;;-141.11
13304;BMP280;6720;51.958;4.540;2023-04-01T05:18:27;61151.31;;;-141.11
13304;BMP280;6720;51.958;4.540;2023-04-01T05:20:53;61151.31;;;-141.11
13304;BMP280;6720;51.958;4.540;2023-04-01T05:23:20;61151.31;;;-141.11
13304;BMP280;6720;51.958;4.540;2023-04-01T05:25:49;61151.31;;;-141.11
13304;BMP280;6720;51.958;4.540;2023-04-01T05:28:17;61151.31;;;-141.11
13304;BMP280;6720;51.958;4.540;2023-04-01T05:30:43;61151.31;;;-141.11
13304;BMP280;6720;51.958;4.540;2023-04-01T05:33:11;61151.31;;;-141.11
13304;BMP280;6720;51.958;4.540;2023-04-01T05:35:37;61151.31;;;-141.11
13304;BMP280;6720;51.958;4.540;2023-04-01T05:38:03;61151.31;;;-141.11
13304;BMP280;6720;51.958;4.540;2023-04-01T05:40:29;61151.31;;;-141.11
13304;BMP280;6720;51.958;4.540;2023-04-01T05:42:55;61151.31;;;-141.11
13304;BMP280;6720;51.958;4.540;2023-04-01T05:45:21;61151.31;;;-141.11
13304;BMP280;6720;51.958;4.540;2023-04-01T05:47:46;61151.31;;;-141.11
13304;BMP280;6720;51.958;4.540;2023-04-01T05:50:12;61151.31;;;-141.11
13304;BMP280;6720;51.958;4.540;2023-04-01T05:52:38;61151.31;;;-141.11
13304;BMP280;6720;51.958;4.540;2023-04-01T05:55:04;61151.31;;;-141.11
13304;BMP280;6720;51.958;4.540;2023-04-01T05:57:31;61151.31;;;-141.11
13304;BMP280;6720;51.958;4.540;2023-04-01T05:59:58;61151.31;;;-141.11
13304;BMP280;6720;51.958;4.540;2023-04-01T06:02:23;61151.31;;;-141.11
13304;BMP280;6720;51.958;4.540;2023-04-01T06:04:54;61151.31;;;-141.11
13304;BMP280;6720;51.958;4.540;2023-04-01T06:07:23;61151.31;;;-141.11
13304;BMP280;6720;51.958;4.540;2023-04-01T06:09:48;61151.31;;;-141.11
13304;BMP280;6720;51.958;4.540;2023-04-01T06:12:36;61151.31;;;-141.11
13304;BMP280;6720;51.958;4.540;2023-04-01T06:20:24;61151.31;;;-141.11
13304;BMP280;6720;51.958;4.540;2023-04-01T06:23:10;61151.31;;;-141.11
13304;BMP280;6720;51.958;4.540;2023-04-01T06:36:57;61151.31;;;-141.11
13304;BMP280;6720;51.958;4.540;2023-04-01T06:39:50;61151.31;;;-141.11
13304;BMP280;6720;51.958;4.540;2023-04-01T06:42:32;61151.31;;;-141.11
13304;BMP280;6720;51.958;4.540;2023-04-01T06:47:46;61151.31;;;-141.11
13304;BMP280;6720;51.958;4.540;2023-04-01T06:50:44;61151.31;;;-141.11
13304;BMP280;6720;51.958;4.540;2023-04-01T06:56:04;61151.31;;;-141.11
13304;BMP280;6720;51.958;4.540;2023-04-01T06:58:39;61151.31;;;-141.11
13304;BMP280;6720;51.958;4.540;2023-04-01T07:01:10;61151.31;;;-141.11
13304;BMP280;6720;51.958;4.540;2023-04-01T07:03:51;61151.31;;;-141.11
13304;BMP280;6720;51.958;4.540;2023-04-01T07:09:15;61151.31;;;-141.11
13304;BMP280;6720;51.958;4.540;2023-04-01T07:11:42;61151.31;;;-141.11
13304;BMP280;6720;51.958;4.540;2023-04-01T07:14:34;61151.31;;;-141.11
13304;BMP280;6720;51.958;4.540;2023-04-01T07:17:20;61151.31;;;-141.11
13304;BMP280;6720;51.958;4.540;2023-04-01T07:19:52;61151.31;;;-141.11
13304;BMP280;6720;51.958;4.540;2023-04-01T07:22:32;61151.31;;;-141.11
13304;BMP280;6720;51.958;4.540;2023-04-01T07:25:03;61151.31;;;-141.11
13304;BMP280;6720;51.958;4.540;2023-04-01T07:27:30;61151.31;;;-141.11
13304;BMP280;6720;51.958;4.540;2023-04-01T07:29:57;61151.31;;;-141.11
13304;BMP280;6720;51.958;4.540;2023-04-01T07:32:39;61151.31;;;-141.11
13304;BMP280;6720;51.958;4.540;2023-04-01T07:46:28;61151.31;;;-141.11
13304;BMP280;6720;51.958;4.540;2023-04-01T07:49:08;61151.31;;;-141.11
13304;BMP280;6720;51.958;4.540;2023-04-01T07:57:11;61151.31;;;-141.11
13304;BMP280;6720;51.958;4.540;2023-04-01T08:13:16;99543.59;;;11.45
13304;BMP280;6720;51.958;4.540;2023-04-01T08:16:10;99543.19;;;11.54
13304;BMP280;6720;51.958;4.540;2023-04-01T08:18:52;99554.06;;;11.45
13304;BMP280;6720;51.958;4.540;2023-04-01T08:21:27;99553.78;;;11.51
13304;BMP280;6720;51.958;4.540;2023-04-01T08:23:56;99555.97;;;11.63
13304;BMP280;6720;51.958;4.540;2023-04-01T08:26:35;99555.16;;;11.61
13304;BMP280;6720;51.958;4.540;2023-04-01T08:31:59;99566.25;;;11.68
13304;BMP280;6720;51.958;4.540;2023-04-01T08:34:47;99561.84;;;11.68
13304;BMP280;6720;51.958;4.540;2023-04-01T08:37:32;99554.66;;;11.52
13304;BMP280;6720;51.958;4.540;2023-04-01T08:45:39;99575.38;;;11.58
13304;BMP280;6720;51.958;4.540;2023-04-01T08:53:12;99586.69;;;11.58
13304;BMP280;6720;51.958;4.540;2023-04-01T09:01:43;99592.97;;;11.54
13304;BMP280;6720;51.958;4.540;2023-04-01T09:32:01;99629.38;;;11.83
13304;BMP280;6720;51.958;4.540;2023-04-01T09:39:37;99639.59;;;11.89
13304;BMP280;6720;51.958;4.540;2023-04-01T09:44:58;99645.69;;;11.70
13304;BMP280;6720;51.958;4.540;2023-04-01T09:50:29;99642.78;;;11.54
13304;BMP280;6720;51.958;4.540;2023-04-01T10:50:04;99710.34;;;12.12
13304;BMP280;6720;51.958;4.540;2023-04-01T10:52:52;99693.16;;;12.05
13304;BMP280;6720;51.958;4.540;2023-04-01T11:06:24;99719.16;;;12.31
13304;BMP280;6720;51.958;4.540;2023-04-01T11:20:27;99735.66;;;12.13
13304;BMP280;6720;51.958;4.540;2023-04-01T11:36:51;99753.00;;;12.37
13304;BMP280;6720;51.958;4.540;2023-04-01T11:38:57;99753.13;;;12.34
13304;BMP280;6720;51.958;4.540;2023-04-01T11:41:49;99747.38;;;12.46
13304;BMP280;6720;51.958;4.540;2023-04-01T11:44:21;99747.75;;;12.37
13304;BMP280;6720;51.958;4.540;2023-04-01T11:52:07;99760.88;;;12.57
13304;BMP280;6720;51.958;4.540;2023-04-01T12:00:22;99774.75;;;12.61
13304;BMP280;6720;51.958;4.540;2023-04-01T12:08:48;99780.06;;;12.59
13304;BMP280;6720;51.958;4.540;2023-04-01T12:24:42;99806.44;;;12.56
13304;BMP280;6720;51.958;4.540;2023-04-01T12:38:49;99821.41;;;12.54
13304;BMP280;6720;51.958;4.540;2023-04-01T12:41:30;99824.03;;;12.54
13304;BMP280;6720;51.958;4.540;2023-04-01T12:55:44;61151.31;;;-141.11
13304;BMP280;6720;51.958;4.540;2023-04-01T12:58:25;99840.88;;;12.70
13304;BMP280;6720;51.958;4.540;2023-04-01T13:01:15;99841.44;;;12.77
13304;BMP280;6720;51.958;4.540;2023-04-01T13:03:58;99844.78;;;12.82
13304;BMP280;6720;51.958;4.540;2023-04-01T13:06:38;99847.31;;;12.83
13304;BMP280;6720;51.958;4.540;2023-04-01T13:09:50;99847.06;;;12.89
13304;BMP280;6720;51.958;4.540;2023-04-01T13:12:40;99846.50;;;13.03
13304;BMP280;6720;51.958;4.540;2023-04-01T13:15:20;99859.75;;;13.00
13304;BMP280;6720;51.958;4.540;2023-04-01T13:18:21;99859.03;;;12.96
13304;BMP280;6720;51.958;4.540;2023-04-01T13:21:10;61151.31;;;-141.11
13304;BMP280;6720;51.958;4.540;2023-04-01T13:24:28;61151.31;;;-141.11
13304;BMP280;6720;51.958;4.540;2023-04-01T13:29:21;61151.31;;;-141.11
13304;BMP280;6720;51.958;4.540;2023-04-01T13:37:35;99885.78;;;13.06
13304;BMP280;6720;51.958;4.540;2023-04-01T13:42:57;99888.66;;;13.00
13304;BMP280;6720;51.958;4.540;2023-04-01T13:48:41;61151.31;;;-141.11
13304;BMP280;6720;51.958;4.540;2023-04-01T13:51:14;61151.31;;;-141.11
13304;BMP280;6720;51.958;4.540;2023-04-01T13:59:13;61151.31;;;-141.11
13304;BMP280;6720;51.958;4.540;2023-04-01T14:01:50;61151.31;;;-141.11
13304;BMP280;6720;51.958;4.540;2023-04-01T14:09:44;61151.31;;;-141.11
13304;BMP280;6720;51.958;4.540;2023-04-01T14:12:36;61151.31;;;-141.11
13304;BMP280;6720;51.958;4.540;2023-04-01T14:20:38;61151.31;;;-141.11
13304;BMP280;6720;51.958;4.540;2023-04-01T14:36:43;99941.63;;;12.46
13304;BMP280;6720;51.958;4.540;2023-04-01T14:39:38;99948.72;;;12.43
13304;BMP280;6720;51.958;4.540;2023-04-01T14:50:29;99963.91;;;12.79
13304;BMP280;6720;51.958;4.540;2023-04-01T14:58:18;99968.25;;;12.80
13304;BMP280;6720;51.958;4.540;2023-04-01T15:08:47;61151.31;;;-141.11
13304;BMP280;6720;51.958;4.540;2023-04-01T15:11:23;99967.75;;;12.92
13304;BMP280;6720;51.958;4.540;2023-04-01T15:19:12;100003.66;;;12.70
13304;BMP280;6720;51.958;4.540;2023-04-01T15:25:13;100003.66;;;12.70
13304;BMP280;6720;51.958;4.540;2023-04-01T15:37:56;100025.25;;;12.32
13304;BMP280;6720;51.958;4.540;2023-04-01T15:40:28;100020.97;;;12.30
13304;BMP280;6720;51.958;4.540;2023-04-01T15:43:05;100033.41;;;12.25
13304;BMP280;6720;51.958;4.540;2023-04-01T15:56:23;100048.22;;;12.50
13304;BMP280;6720;51.958;4.540;2023-04-01T16:11:53;61151.31;;;-141.11
13304;BMP280;6720;51.958;4.540;2023-04-01T16:17:22;100081.13;;;12.59
13304;BMP280;6720;51.958;4.540;2023-04-01T16:22:52;61151.31;;;-141.11
13304;BMP280;6720;51.958;4.540;2023-04-01T16:33:19;61151.31;;;-141.11
13304;BMP280;6720;51.958;4.540;2023-04-01T16:38:36;61151.31;;;-141.11
13304;BMP280;6720;51.958;4.540;2023-04-01T16:41:31;61151.31;;;-141.11
13304;BMP280;6720;51.958;4.540;2023-04-01T16:44:16;61151.31;;;-141.11
13304;BMP280;6720;51.958;4.540;2023-04-01T16:46:52;61151.31;;;-141.11
13304;BMP280;6720;51.958;4.540;2023-04-01T16:49:39;61151.31;;;-141.11
13304;BMP280;6720;51.958;4.540;2023-04-01T16:54:42;61151.31;;;-141.11
13304;BMP280;6720;51.958;4.540;2023-04-01T17:02:28;61151.31;;;-141.11
13304;BMP280;6720;51.958;4.540;2023-04-01T17:07:47;61151.31;;;-141.11
13304;BMP280;6720;51.958;4.540;2023-04-01T17:10:40;61151.31;;;-141.11
13304;BMP280;6720;51.958;4.540;2023-04-01T17:18:23;61151.31;;;-141.11
13304;BMP280;6720;51.958;4.540;2023-04-01T17:26:09;61151.31;;;-141.11
13304;BMP280;6720;51.958;4.540;2023-04-01T17:29:10;61151.31;;;-141.11
13304;BMP280;6720;51.958;4.540;2023-04-01T17:31:45;61151.31;;;-141.11
13304;BMP280;6720;51.958;4.540;2023-04-01T17:42:30;61151.31;;;-141.11
13304;BMP280;6720;51.958;4.540;2023-04-01T17:48:14;61151.31;;;-141.11
13304;BMP280;6720;51.958;4.540;2023-04-01T17:58:44;61151.31;;;-141.11
13304;BMP280;6720;51.958;4.540;2023-04-01T18:01:29;61151.31;;;-141.11
13304;BMP280;6720;51.958;4.540;2023-04-01T18:15:46;61151.31;;;-141.11
13304;BMP280;6720;51.958;4.540;2023-04-01T18:20:42;61151.31;;;-141.11
13304;BMP280;6720;51.958;4.540;2023-04-01T18:23:14;61151.31;;;-141.11
13304;BMP280;6720;51.958;4.540;2023-04-01T18:25:47;61151.31;;;-141.11
13304;BMP280;6720;51.958;4.540;2023-04-01T18:30:51;61151.31;;;-141.11
13304;BMP280;6720;51.958;4.540;2023-04-01T18:33:29;61151.31;;;-141.11
13304;BMP280;6720;51.958;4.540;2023-04-01T18:36:09;61151.31;;;-141.11
13304;BMP280;6720;51.958;4.540;2023-04-01T18:39:03;61151.31;;;-141.11
13304;BMP280;6720;51.958;4.540;2023-04-01T18:42:08;61151.31;;;-141.11
13304;BMP280;6720;51.958;4.540;2023-04-01T18:52:44;61151.31;;;-141.11
13304;BMP280;6720;51.958;4.540;2023-04-01T18:55:30;61151.31;;;-141.11
13304;BMP280;6720;51.958;4.540;2023-04-01T19:00:47;61151.31;;;-141.11
13304;BMP280;6720;51.958;4.540;2023-04-01T19:03:18;61151.31;;;-141.11
13304;BMP280;6720;51.958;4.540;2023-04-01T19:05:47;61151.31;;;-141.11
13304;BMP280;6720;51.958;4.540;2023-04-01T19:08:30;61151.31;;;-141.11
13304;BMP280;6720;51.958;4.540;2023-04-01T19:11:30;61151.31;;;-141.11
13304;BMP280;6720;51.958;4.540;2023-04-01T19:14:26;61151.31;;;-141.11
13304;BMP280;6720;51.958;4.540;2023-04-01T19:22:39;61151.31;;;-141.11
13304;BMP280;6720;51.958;4.540;2023-04-01T19:27:50;61151.31;;;-141.11
13304;BMP280;6720;51.958;4.540;2023-04-01T19:33:22;61151.31;;;-141.11
13304;BMP280;6720;51.958;4.540;2023-04-01T19:38:39;61151.31;;;-141.11
13304;BMP280;6720;51.958;4.540;2023-04-01T19:46:42;61151.31;;;-141.11
13304;BMP280;6720;51.958;4.540;2023-04-01T19:49:28;61151.31;;;-141.11
13304;BMP280;6720;51.958;4.540;2023-04-01T19:52:04;61151.31;;;-141.11
13304;BMP280;6720;51.958;4.540;2023-04-01T20:05:38;61151.31;;;-141.11
13304;BMP280;6720;51.958;4.540;2023-04-01T20:11:18;61151.31;;;-141.11
13304;BMP280;6720;51.958;4.540;2023-04-01T20:16:21;61151.31;;;-141.11
13304;BMP280;6720;51.958;4.540;2023-04-01T20:18:55;61151.31;;;-141.11
13304;BMP280;6720;51.958;4.540;2023-04-01T20:21:30;61151.31;;;-141.11
13304;BMP280;6720;51.958;4.540;2023-04-01T20:24:02;61151.31;;;-141.11
13304;BMP280;6720;51.958;4.540;2023-04-01T20:26:34;61151.31;;;-141.11
13304;BMP280;6720;51.958;4.540;2023-04-01T20:34:40;61151.31;;;-141.11
13304;BMP280;6720;51.958;4.540;2023-04-01T20:37:16;61151.31;;;-141.11
13304;BMP280;6720;51.958;4.540;2023-04-01T20:44:55;61151.31;;;-141.11
13304;BMP280;6720;51.958;4.540;2023-04-01T20:47:51;61151.31;;;-141.11
13304;BMP280;6720;51.958;4.540;2023-04-01T20:50:29;61151.31;;;-141.11
13304;BMP280;6720;51.958;4.540;2023-04-01T20:53:07;61151.31;;;-141.11
13304;BMP280;6720;51.958;4.540;2023-04-01T20:58:38;61151.31;;;-141.11
13304;BMP280;6720;51.958;4.540;2023-04-01T21:01:25;61151.31;;;-141.11
13304;BMP280;6720;51.958;4.540;2023-04-01T21:09:29;61151.31;;;-141.11
13304;BMP280;6720;51.958;4.540;2023-04-01T21:12:05;61151.31;;;-141.11
13304;BMP280;6720;51.958;4.540;2023-04-01T21:17:27;61151.31;;;-141.11
13304;BMP280;6720;51.958;4.540;2023-04-01T21:23:22;61151.31;;;-141.11
13304;BMP280;6720;51.958;4.540;2023-04-01T21:26:05;61151.31;;;-141.11
13304;BMP280;6720;51.958;4.540;2023-04-01T21:28:40;61151.31;;;-141.11
13304;BMP280;6720;51.958;4.540;2023-04-01T21:31:21;61151.31;;;-141.11
13304;BMP280;6720;51.958;4.540;2023-04-01T21:44:58;61151.31;;;-141.11
13304;BMP280;6720;51.958;4.540;2023-04-01T22:04:42;61151.31;;;-141.11
13304;BMP280;6720;51.958;4.540;2023-04-01T22:12:17;61151.31;;;-141.11
13304;BMP280;6720;51.958;4.540;2023-04-01T22:17:40;61151.31;;;-141.11
13304;BMP280;6720;51.958;4.540;2023-04-01T22:20:20;61151.31;;;-141.11
13304;BMP280;6720;51.958;4.540;2023-04-01T22:31:48;61151.31;;;-141.11
13304;BMP280;6720;51.958;4.540;2023-04-01T22:34:17;61151.31;;;-141.11
13304;BMP280;6720;51.958;4.540;2023-04-01T22:39:17;61151.31;;;-141.11
13304;BMP280;6720;51.958;4.540;2023-04-01T22:50:19;61151.31;;;-141.11
13304;BMP280;6720;51.958;4.540;2023-04-01T22:52:47;61151.31;;;-141.11
13304;BMP280;6720;51.958;4.540;2023-04-01T22:55:24;61151.31;;;-141.11
13304;BMP280;6720;51.958;4.540;2023-04-01T22:58:05;61151.31;;;-141.11
13304;BMP280;6720;51.958;4.540;2023-04-01T23:00:40;61151.31;;;-141.11
13304;BMP280;6720;51.958;4.540;2023-04-01T23:03:21;61151.31;;;-141.11
13304;BMP280;6720;51.958;4.540;2023-04-01T23:05:55;61151.31;;;-141.11
13304;BMP280;6720;51.958;4.540;2023-04-01T23:08:54;61151.31;;;-141.11
13304;BMP280;6720;51.958;4.540;2023-04-01T23:11:31;61151.31;;;-141.11
13304;BMP280;6720;51.958;4.540;2023-04-01T23:16:59;61151.31;;;-141.11
13304;BMP280;6720;51.958;4.540;2023-04-01T23:19:32;61151.31;;;-141.11
13304;BMP280;6720;51.958;4.540;2023-04-01T23:22:24;61151.31;;;-141.11
13304;BMP280;6720;51.958;4.540;2023-04-01T23:25:13;61151.31;;;-141.11
13304;BMP280;6720;51.958;4.540;2023-04-01T23:27:50;61151.31;;;-141.11
13304;BMP280;6720;51.958;4.540;2023-04-01T23:35:49;61151.31;;;-141.11
13304;BMP280;6720;51.958;4.540;2023-04-01T23:38:16;61151.31;;;-141.11
13304;BMP280;6720;51.958;4.540;2023-04-01T23:40:42;61151.31;;;-141.11
13304;BMP280;6720;51.958;4.540;2023-04-01T23:43:39;61151.31;;;-141.11
13304;BMP280;6720;51.958;4.540;2023-04-01T23:46:06;61151.31;;;-141.11
13304;BMP280;6720;51.958;4.540;2023-04-01T23:48:40;61151.31;;;-141.11
13304;BMP280;6720;51.958;4.540;2023-04-01T23:53:46;61151.31;;;-141.11
13304;BMP280;6720;51.958;4.540;2023-04-01T23:56:13;61151.31;;;-141.11
13304;BMP280;6720;51.958;4.540;2023-04-01T23:58:44;61151.31;;;-141.11
